AVA9472 SKBO-SKBG
Flight info
| Callsign | AVA9472 |
|---|---|
| Flight time | 0h 28m |
| Altitude | 23000 |
| Route | OSUSU4R KOVBU A567 OPROG OPROG1B |
| Aircraft | A320/M-SDE3FGHIRWY/LB1 |
Departure
| Time | 2026-04-25 02:24 |
|---|---|
| Airport | El Dorado International Airport (SKBO) |
Arrival
| Time | 2026-04-25 02:53 |
|---|---|
| Airport | Palonegro Airport (SKBG) |
| Time | Latitude | Longitude | Altitude | Speed | Heading |
|---|---|---|---|---|---|
| 2026-04-25 01:36 | 4.69839 | -74.13926 | 8373 ft | 0 kts | 217° |
| 2026-04-25 01:54 | 4.69856 | -74.13913 | 8374 ft | 4 kts | 217° |
| 2026-04-25 01:55 | 4.69875 | -74.13899 | 8374 ft | 4 kts | 220° |
| 2026-04-25 01:55 | 4.69892 | -74.13880 | 8374 ft | 4 kts | 248° |
| 2026-04-25 01:55 | 4.69894 | -74.13855 | 8373 ft | 4 kts | 294° |
| 2026-04-25 01:55 | 4.69879 | -74.13834 | 8374 ft | 4 kts | 317° |
| 2026-04-25 01:56 | 4.69860 | -74.13816 | 8374 ft | 3 kts | 307° |
| 2026-04-25 01:56 | 4.69868 | -74.13826 | 8373 ft | 4 kts | 307° |
| 2026-04-25 01:56 | 4.69881 | -74.13844 | 8374 ft | 1 kts | 307° |
| 2026-04-25 01:56 | 4.69882 | -74.13845 | 8374 ft | 0 kts | 307° |
| 2026-04-25 01:58 | 4.69888 | -74.13852 | 8373 ft | 3 kts | 307° |
| 2026-04-25 01:59 | 4.69911 | -74.13873 | 8373 ft | 6 kts | 343° |
| 2026-04-25 01:59 | 4.69968 | -74.13862 | 8373 ft | 10 kts | 2° |
| 2026-04-25 01:59 | 4.70022 | -74.13914 | 8373 ft | 13 kts | 308° |
| 2026-04-25 01:59 | 4.70079 | -74.13986 | 8373 ft | 14 kts | 307° |
| 2026-04-25 02:00 | 4.70137 | -74.14063 | 8373 ft | 14 kts | 308° |
| 2026-04-25 02:00 | 4.70198 | -74.14143 | 8373 ft | 15 kts | 307° |
| 2026-04-25 02:00 | 4.70260 | -74.14227 | 8373 ft | 15 kts | 307° |
| 2026-04-25 02:00 | 4.70326 | -74.14313 | 8373 ft | 16 kts | 307° |
| 2026-04-25 02:01 | 4.70391 | -74.14399 | 8373 ft | 12 kts | 309° |
| 2026-04-25 02:01 | 4.70457 | -74.14398 | 8370 ft | 11 kts | 15° |
| 2026-04-25 02:01 | 4.70514 | -74.14445 | 8373 ft | 12 kts | 307° |
| 2026-04-25 02:01 | 4.70567 | -74.14516 | 8373 ft | 13 kts | 307° |
| 2026-04-25 02:02 | 4.70628 | -74.14596 | 8378 ft | 15 kts | 307° |
| 2026-04-25 02:02 | 4.70697 | -74.14687 | 8373 ft | 17 kts | 306° |
| 2026-04-25 02:02 | 4.70773 | -74.14790 | 8373 ft | 19 kts | 307° |
| 2026-04-25 02:02 | 4.70853 | -74.14894 | 8373 ft | 19 kts | 307° |
| 2026-04-25 02:03 | 4.70932 | -74.14998 | 8373 ft | 19 kts | 306° |
| 2026-04-25 02:03 | 4.71013 | -74.15106 | 8373 ft | 19 kts | 307° |
| 2026-04-25 02:03 | 4.71094 | -74.15213 | 8371 ft | 19 kts | 307° |
| 2026-04-25 02:03 | 4.71165 | -74.15295 | 8373 ft | 6 kts | 330° |
| 2026-04-25 02:04 | 4.71166 | -74.15296 | 8373 ft | 0 kts | 331° |
| 2026-04-25 02:17 | 4.71174 | -74.15300 | 8373 ft | 5 kts | 333° |
| 2026-04-25 02:17 | 4.71220 | -74.15304 | 8370 ft | 7 kts | 13° |
| 2026-04-25 02:17 | 4.71237 | -74.15294 | 8373 ft | 0 kts | 36° |
| 2026-04-25 02:21 | 4.71272 | -74.15261 | 8373 ft | 14 kts | 47° |
| 2026-04-25 02:22 | 4.71328 | -74.15197 | 8371 ft | 6 kts | 72° |
| 2026-04-25 02:22 | 4.71319 | -74.15184 | 8371 ft | 0 kts | 123° |
| 2026-04-25 02:23 | 4.71315 | -74.15178 | 8371 ft | 6 kts | 126° |
| 2026-04-25 02:23 | 4.71175 | -74.14993 | 8370 ft | 69 kts | 127° |
| 2026-04-25 02:24 | 4.70758 | -74.14440 | 8373 ft | 128 kts | 127° |
| 2026-04-25 02:24 | 4.70114 | -74.13591 | 8373 ft | 176 kts | 127° |
| 2026-04-25 02:24 | 4.69359 | -74.12603 | 8930 ft | 177 kts | 127° |
| 2026-04-25 02:24 | 4.68694 | -74.11564 | 9584 ft | 177 kts | 104° |
| 2026-04-25 02:25 | 4.68838 | -74.10369 | 9972 ft | 179 kts | 53° |
| 2026-04-25 02:25 | 4.69721 | -74.09518 | 10435 ft | 176 kts | 30° |
| 2026-04-25 02:25 | 4.70843 | -74.09028 | 10840 ft | 176 kts | 19° |
| 2026-04-25 02:25 | 4.72007 | -74.08640 | 11235 ft | 177 kts | 17° |
| 2026-04-25 02:26 | 4.73191 | -74.08261 | 11549 ft | 184 kts | 17° |
| 2026-04-25 02:26 | 4.74471 | -74.07853 | 11673 ft | 202 kts | 17° |
| 2026-04-25 02:26 | 4.75852 | -74.07408 | 11801 ft | 220 kts | 17° |
| 2026-04-25 02:26 | 4.77380 | -74.06913 | 11929 ft | 240 kts | 17° |
| 2026-04-25 02:27 | 4.78998 | -74.06383 | 12322 ft | 249 kts | 17° |
| 2026-04-25 02:27 | 4.80719 | -74.05812 | 12451 ft | 272 kts | 18° |
| 2026-04-25 02:27 | 4.82592 | -74.05185 | 12646 ft | 296 kts | 18° |
| 2026-04-25 02:27 | 4.84619 | -74.04505 | 12818 ft | 319 kts | 18° |
| 2026-04-25 02:28 | 4.86827 | -74.03760 | 12972 ft | 341 kts | 18° |
| 2026-04-25 02:28 | 4.89088 | -74.02992 | 13390 ft | 353 kts | 18° |
| 2026-04-25 02:28 | 4.91429 | -74.02194 | 14005 ft | 358 kts | 18° |
| 2026-04-25 02:28 | 4.93836 | -74.01372 | 14510 ft | 366 kts | 18° |
| 2026-04-25 02:29 | 4.96312 | -74.00529 | 14613 ft | 385 kts | 18° |
| 2026-04-25 02:29 | 4.98855 | -73.99666 | 14877 ft | 395 kts | 18° |
| 2026-04-25 02:29 | 5.01481 | -73.98780 | 15358 ft | 400 kts | 17° |
| 2026-04-25 02:29 | 5.04154 | -73.97967 | 15873 ft | 403 kts | 15° |
| 2026-04-25 02:30 | 5.06880 | -73.97253 | 16392 ft | 407 kts | 13° |
| 2026-04-25 02:30 | 5.09645 | -73.96595 | 16905 ft | 410 kts | 12° |
| 2026-04-25 02:30 | 5.12431 | -73.95955 | 17419 ft | 413 kts | 12° |
| 2026-04-25 02:30 | 5.15247 | -73.95304 | 17908 ft | 416 kts | 12° |
| 2026-04-25 02:31 | 5.18082 | -73.94632 | 18397 ft | 420 kts | 12° |
| 2026-04-25 02:31 | 5.20928 | -73.93939 | 18823 ft | 423 kts | 13° |
| 2026-04-25 02:31 | 5.23789 | -73.93223 | 19237 ft | 425 kts | 13° |
| 2026-04-25 02:31 | 5.26667 | -73.92494 | 19653 ft | 428 kts | 13° |
| 2026-04-25 02:32 | 5.29563 | -73.91761 | 20032 ft | 430 kts | 13° |
| 2026-04-25 02:32 | 5.32476 | -73.91028 | 20419 ft | 433 kts | 13° |
| 2026-04-25 02:32 | 5.35406 | -73.90297 | 20792 ft | 435 kts | 13° |
| 2026-04-25 02:32 | 5.38354 | -73.89564 | 21156 ft | 438 kts | 13° |
| 2026-04-25 02:33 | 5.41321 | -73.88827 | 21532 ft | 440 kts | 13° |
| 2026-04-25 02:33 | 5.44303 | -73.88086 | 21861 ft | 443 kts | 13° |
| 2026-04-25 02:33 | 5.47299 | -73.87342 | 22206 ft | 445 kts | 13° |
| 2026-04-25 02:33 | 5.50314 | -73.86592 | 22541 ft | 448 kts | 13° |
| 2026-04-25 02:34 | 5.53292 | -73.85649 | 22835 ft | 451 kts | 22° |
| 2026-04-25 02:34 | 5.56108 | -73.84237 | 23108 ft | 454 kts | 29° |
| 2026-04-25 02:34 | 5.58866 | -73.82668 | 23227 ft | 458 kts | 29° |
| 2026-04-25 02:34 | 5.61664 | -73.81084 | 23248 ft | 466 kts | 29° |
| 2026-04-25 02:35 | 5.64513 | -73.79477 | 23248 ft | 473 kts | 29° |
| 2026-04-25 02:35 | 5.67400 | -73.77850 | 23273 ft | 478 kts | 29° |
| 2026-04-25 02:35 | 5.70311 | -73.76208 | 23244 ft | 480 kts | 29° |
| 2026-04-25 02:35 | 5.73237 | -73.74555 | 23245 ft | 485 kts | 29° |
| 2026-04-25 02:36 | 5.76180 | -73.72886 | 23241 ft | 487 kts | 29° |
| 2026-04-25 02:36 | 5.79126 | -73.71213 | 23241 ft | 487 kts | 29° |
| 2026-04-25 02:36 | 5.82078 | -73.69540 | 23242 ft | 487 kts | 29° |
| 2026-04-25 02:36 | 5.85032 | -73.67871 | 23209 ft | 487 kts | 28° |
| 2026-04-25 02:37 | 5.87984 | -73.66204 | 23210 ft | 487 kts | 28° |
| 2026-04-25 02:37 | 5.90934 | -73.64533 | 23229 ft | 487 kts | 29° |
| 2026-04-25 02:37 | 5.93885 | -73.62859 | 23229 ft | 486 kts | 29° |
| 2026-04-25 02:37 | 5.96829 | -73.61187 | 23226 ft | 486 kts | 29° |
| 2026-04-25 02:38 | 5.99772 | -73.59515 | 23186 ft | 486 kts | 29° |
| 2026-04-25 02:38 | 6.02712 | -73.57846 | 23183 ft | 486 kts | 29° |
| 2026-04-25 02:38 | 6.05653 | -73.56176 | 23183 ft | 486 kts | 29° |
| 2026-04-25 02:38 | 6.08596 | -73.54507 | 23181 ft | 486 kts | 29° |
| 2026-04-25 02:39 | 6.11539 | -73.52841 | 23181 ft | 486 kts | 29° |
| 2026-04-25 02:39 | 6.14489 | -73.51171 | 23141 ft | 486 kts | 29° |
| 2026-04-25 02:39 | 6.17435 | -73.49502 | 23156 ft | 486 kts | 29° |
| 2026-04-25 02:39 | 6.20381 | -73.47830 | 23155 ft | 486 kts | 29° |
| 2026-04-25 02:40 | 6.23324 | -73.46156 | 23152 ft | 486 kts | 29° |
| 2026-04-25 02:40 | 6.26271 | -73.44483 | 23151 ft | 486 kts | 29° |
| 2026-04-25 02:40 | 6.29192 | -73.42829 | 22946 ft | 473 kts | 29° |
| 2026-04-25 02:40 | 6.32001 | -73.41238 | 22604 ft | 456 kts | 28° |
| 2026-04-25 02:41 | 6.34776 | -73.39666 | 21368 ft | 462 kts | 28° |
| 2026-04-25 02:41 | 6.37580 | -73.38076 | 20408 ft | 462 kts | 28° |
| 2026-04-25 02:41 | 6.40369 | -73.36491 | 19650 ft | 459 kts | 28° |
| 2026-04-25 02:41 | 6.43100 | -73.34940 | 18929 ft | 454 kts | 28° |
| 2026-04-25 02:42 | 6.45835 | -73.33385 | 18216 ft | 449 kts | 28° |
| 2026-04-25 02:42 | 6.48533 | -73.31852 | 17227 ft | 438 kts | 28° |
| 2026-04-25 02:42 | 6.51164 | -73.30358 | 15926 ft | 431 kts | 28° |
| 2026-04-25 02:42 | 6.53773 | -73.28878 | 15158 ft | 430 kts | 29° |
| 2026-04-25 02:43 | 6.56348 | -73.27417 | 14185 ft | 420 kts | 29° |
| 2026-04-25 02:43 | 6.58869 | -73.25987 | 12918 ft | 413 kts | 29° |
| 2026-04-25 02:43 | 6.61356 | -73.24575 | 11853 ft | 409 kts | 29° |
| 2026-04-25 02:43 | 6.63827 | -73.23170 | 11380 ft | 407 kts | 29° |
| 2026-04-25 02:44 | 6.66275 | -73.21779 | 11186 ft | 393 kts | 29° |
| 2026-04-25 02:44 | 6.68549 | -73.20485 | 11031 ft | 359 kts | 29° |
| 2026-04-25 02:44 | 6.70618 | -73.19305 | 11021 ft | 326 kts | 29° |
| 2026-04-25 02:44 | 6.72501 | -73.18232 | 11025 ft | 297 kts | 29° |
| 2026-04-25 02:45 | 6.74225 | -73.17251 | 10918 ft | 276 kts | 29° |
| 2026-04-25 02:45 | 6.75880 | -73.16310 | 10510 ft | 269 kts | 29° |
| 2026-04-25 02:45 | 6.77479 | -73.15403 | 10181 ft | 259 kts | 28° |
| 2026-04-25 02:45 | 6.79022 | -73.14529 | 9868 ft | 249 kts | 29° |
| 2026-04-25 02:46 | 6.80482 | -73.13700 | 9554 ft | 239 kts | 29° |
| 2026-04-25 02:46 | 6.81892 | -73.12895 | 9315 ft | 226 kts | 29° |
| 2026-04-25 02:46 | 6.83221 | -73.12137 | 9020 ft | 214 kts | 29° |
| 2026-04-25 02:46 | 6.84483 | -73.11419 | 8754 ft | 203 kts | 29° |
| 2026-04-25 02:47 | 6.85707 | -73.10724 | 8513 ft | 203 kts | 29° |
| 2026-04-25 02:47 | 6.86976 | -73.10067 | 8265 ft | 207 kts | 20° |
| 2026-04-25 02:47 | 6.88373 | -73.09751 | 8067 ft | 206 kts | 4° |
| 2026-04-25 02:47 | 6.89799 | -73.09839 | 7995 ft | 206 kts | 348° |
| 2026-04-25 02:48 | 6.91167 | -73.10284 | 7740 ft | 206 kts | 338° |
| 2026-04-25 02:48 | 6.92483 | -73.10802 | 7518 ft | 199 kts | 338° |
| 2026-04-25 02:48 | 6.93749 | -73.11303 | 7337 ft | 192 kts | 338° |
| 2026-04-25 02:48 | 6.94966 | -73.11785 | 7175 ft | 185 kts | 338° |
| 2026-04-25 02:49 | 6.96157 | -73.12255 | 7013 ft | 183 kts | 339° |
| 2026-04-25 02:49 | 6.97344 | -73.12712 | 6807 ft | 182 kts | 339° |
| 2026-04-25 02:49 | 6.98529 | -73.13158 | 6560 ft | 181 kts | 340° |
| 2026-04-25 02:49 | 6.99708 | -73.13601 | 6316 ft | 181 kts | 340° |
| 2026-04-25 02:50 | 7.00878 | -73.14041 | 6073 ft | 176 kts | 340° |
| 2026-04-25 02:50 | 7.01976 | -73.14456 | 5876 ft | 162 kts | 340° |
| 2026-04-25 02:50 | 7.03009 | -73.14845 | 5661 ft | 156 kts | 340° |
| 2026-04-25 02:50 | 7.04017 | -73.15224 | 5482 ft | 154 kts | 340° |
| 2026-04-25 02:51 | 7.05017 | -73.15600 | 5281 ft | 153 kts | 340° |
| 2026-04-25 02:51 | 7.06010 | -73.15974 | 5080 ft | 152 kts | 340° |
| 2026-04-25 02:51 | 7.07002 | -73.16349 | 4882 ft | 152 kts | 340° |
| 2026-04-25 02:51 | 7.07991 | -73.16721 | 4686 ft | 151 kts | 340° |
| 2026-04-25 02:52 | 7.08971 | -73.17089 | 4489 ft | 150 kts | 339° |
| 2026-04-25 02:52 | 7.09941 | -73.17449 | 4263 ft | 148 kts | 339° |
| 2026-04-25 02:52 | 7.10901 | -73.17810 | 4046 ft | 147 kts | 339° |
| 2026-04-25 02:52 | 7.11854 | -73.18174 | 3889 ft | 146 kts | 338° |
| 2026-04-25 02:53 | 7.12680 | -73.18490 | 3906 ft | 94 kts | 339° |
| 2026-04-25 02:53 | 7.12972 | -73.18599 | 3909 ft | 47 kts | 340° |
| 2026-04-25 02:53 | 7.13159 | -73.18666 | 3911 ft | 17 kts | 342° |
| 2026-04-25 02:53 | 7.13201 | -73.18651 | 3911 ft | 6 kts | 91° |
| 2026-04-25 02:54 | 7.13190 | -73.18615 | 3911 ft | 4 kts | 105° |
| 2026-04-25 02:54 | 7.13179 | -73.18591 | 3911 ft | 2 kts | 117° |
| 2026-04-25 02:54 | 7.13173 | -73.18581 | 3911 ft | 4 kts | 126° |
| 2026-04-25 02:54 | 7.13112 | -73.18547 | 3909 ft | 13 kts | 158° |
| 2026-04-25 02:55 | 7.13036 | -73.18519 | 3911 ft | 11 kts | 159° |
| 2026-04-25 02:55 | 7.12972 | -73.18495 | 3911 ft | 9 kts | 159° |
| 2026-04-25 02:55 | 7.12915 | -73.18473 | 3908 ft | 9 kts | 159° |
| 2026-04-25 02:55 | 7.12849 | -73.18447 | 3908 ft | 12 kts | 159° |
| 2026-04-25 02:56 | 7.12770 | -73.18417 | 3903 ft | 12 kts | 158° |
| 2026-04-25 02:56 | 7.12742 | -73.18351 | 3906 ft | 10 kts | 100° |
| 2026-04-25 02:56 | 7.12716 | -73.18288 | 3902 ft | 9 kts | 130° |
| 2026-04-25 02:56 | 7.12695 | -73.18231 | 3901 ft | 8 kts | 101° |
| 2026-04-25 02:57 | 7.12689 | -73.18179 | 3905 ft | 6 kts | 77° |
| 2026-04-25 02:57 | 7.12719 | -73.18162 | 3904 ft | 2 kts | 11° |
| 2026-04-25 02:57 | 7.12732 | -73.18159 | 3902 ft | 1 kts | 10° |
| 2026-04-25 02:57 | 7.12734 | -73.18159 | 3903 ft | 0 kts | 10° |